sensor_id;sensor_type;location;lat;lon;timestamp;pressure;altitude;pressure_sealevel;temperature;humidity
6938;BME280;40040;42.706;23.372;2022-09-09T00:02:27;148859.34;;;19.01;98.02
6938;BME280;40040;42.706;23.372;2022-09-09T00:04:59;148841.94;;;18.94;99.18
6938;BME280;40040;42.706;23.372;2022-09-09T00:07:37;148823.31;;;18.86;100.00
6938;BME280;40040;42.706;23.372;2022-09-09T00:10:16;148838.22;;;18.92;100.00
6938;BME280;40040;42.706;23.372;2022-09-09T00:12:52;148827.06;;;18.88;100.00
6938;BME280;40040;42.706;23.372;2022-09-09T00:15:26;148824.56;;;18.87;100.00
6938;BME280;40040;42.706;23.372;2022-09-09T00:18:06;148814.63;;;18.83;100.00
6938;BME280;40040;42.706;23.372;2022-09-09T00:20:39;148819.59;;;18.85;100.00
6938;BME280;40040;42.706;23.372;2022-09-09T00:23:12;148804.72;;;18.79;100.00
6938;BME280;40040;42.706;23.372;2022-09-09T00:25:47;148814.63;;;18.83;100.00
6938;BME280;40040;42.706;23.372;2022-09-09T00:28:18;148799.75;;;18.77;100.00
6938;BME280;40040;42.706;23.372;2022-09-09T00:30:47;148776.16;;;18.67;100.00
6938;BME280;40040;42.706;23.372;2022-09-09T00:33:17;148761.28;;;18.61;100.00
6938;BME280;40040;42.706;23.372;2022-09-09T00:35:49;148737.66;;;18.52;100.00
6938;BME280;40040;42.706;23.372;2022-09-09T00:38:19;148748.88;;;18.56;100.00
6938;BME280;40040;42.706;23.372;2022-09-09T00:40:50;148750.09;;;18.57;100.00
6938;BME280;40040;42.706;23.372;2022-09-09T00:43:26;148642.13;;;18.13;100.00
6938;BME280;40040;42.706;23.372;2022-09-09T00:49:03;148740.19;;;18.53;100.00
6938;BME280;40040;42.706;23.372;2022-09-09T00:51:40;148737.66;;;18.52;100.00
6938;BME280;40040;42.706;23.372;2022-09-09T00:54:26;148732.69;;;18.50;100.00
6938;BME280;40040;42.706;23.372;2022-09-09T00:57:09;148611.09;;;18.01;100.00
6938;BME280;40040;42.706;23.372;2022-09-09T00:59:46;148678.06;;;18.28;100.00
6938;BME280;40040;42.706;23.372;2022-09-09T01:02:18;148683.03;;;18.30;100.00
6938;BME280;40040;42.706;23.372;2022-09-09T01:04:49;148679.31;;;18.28;100.00
6938;BME280;40040;42.706;23.372;2022-09-09T01:07:17;148663.19;;;18.22;100.00
6938;BME280;40040;42.706;23.372;2022-09-09T01:09:52;148679.31;;;18.28;100.00
6938;BME280;40040;42.706;23.372;2022-09-09T01:12:25;148613.56;;;18.02;100.00
6938;BME280;40040;42.706;23.372;2022-09-09T01:15:03;148676.81;;;18.27;100.00
6938;BME280;40040;42.706;23.372;2022-09-09T01:17:44;148655.72;;;18.19;100.00
6938;BME280;40040;42.706;23.372;2022-09-09T01:20:17;148627.22;;;18.07;100.00
6938;BME280;40040;42.706;23.372;2022-09-09T01:22:57;148635.88;;;18.11;100.00
6938;BME280;40040;42.706;23.372;2022-09-09T01:28:33;148640.84;;;18.13;100.00
6938;BME280;40040;42.706;23.372;2022-09-09T01:31:03;148578.81;;;17.87;100.00
6938;BME280;40040;42.706;23.372;2022-09-09T01:33:30;148619.78;;;18.04;100.00
6938;BME280;40040;42.706;23.372;2022-09-09T01:36:00;148601.16;;;17.96;100.00
6938;BME280;40040;42.706;23.372;2022-09-09T01:38:30;148532.94;;;17.69;100.00
6938;BME280;40040;42.706;23.372;2022-09-09T01:40:58;148583.78;;;17.89;100.00
6938;BME280;40040;42.706;23.372;2022-09-09T01:43:25;148578.81;;;17.87;100.00
6938;BME280;40040;42.706;23.372;2022-09-09T01:45:56;148581.31;;;17.88;100.00
6938;BME280;40040;42.706;23.372;2022-09-09T01:48:25;148586.25;;;17.90;100.00
6938;BME280;40040;42.706;23.372;2022-09-09T01:50:52;148591.22;;;17.92;100.00
6938;BME280;40040;42.706;23.372;2022-09-09T01:53:20;148583.78;;;17.89;100.00
6938;BME280;40040;42.706;23.372;2022-09-09T01:55:56;148568.91;;;17.83;100.00
6938;BME280;40040;42.706;23.372;2022-09-09T01:58:32;148555.28;;;17.78;100.00
6938;BME280;40040;42.706;23.372;2022-09-09T02:01:06;148545.31;;;17.74;100.00
6938;BME280;40040;42.706;23.372;2022-09-09T02:03:36;148521.75;;;17.64;100.00
6938;BME280;40040;42.706;23.372;2022-09-09T02:06:11;148534.19;;;17.69;100.00
6938;BME280;40040;42.706;23.372;2022-09-09T02:08:43;148540.34;;;17.72;100.00
6938;BME280;40040;42.706;23.372;2022-09-09T02:11:13;148545.31;;;17.74;100.00
6938;BME280;40040;42.706;23.372;2022-09-09T02:13:41;148516.81;;;17.62;100.00
6938;BME280;40040;42.706;23.372;2022-09-09T02:16:15;148511.84;;;17.60;100.00
6938;BME280;40040;42.706;23.372;2022-09-09T02:18:49;148509.34;;;17.59;100.00
6938;BME280;40040;42.706;23.372;2022-09-09T02:21:17;148514.31;;;17.61;100.00
6938;BME280;40040;42.706;23.372;2022-09-09T02:23:46;148501.91;;;17.56;100.00
6938;BME280;40040;42.706;23.372;2022-09-09T02:26:15;148504.38;;;17.57;100.00
6938;BME280;40040;42.706;23.372;2022-09-09T02:28:48;148505.63;;;17.58;100.00
6938;BME280;40040;42.706;23.372;2022-09-09T02:31:20;148501.91;;;17.56;100.00
6938;BME280;40040;42.706;23.372;2022-09-09T02:33:52;148501.91;;;17.56;100.00
6938;BME280;40040;42.706;23.372;2022-09-09T02:36:23;148441.09;;;17.32;100.00
6938;BME280;40040;42.706;23.372;2022-09-09T02:38:51;148498.19;;;17.55;100.00
6938;BME280;40040;42.706;23.372;2022-09-09T02:41:20;148491.97;;;17.52;100.00
6938;BME280;40040;42.706;23.372;2022-09-09T02:43:50;148487.06;;;17.50;100.00
6938;BME280;40040;42.706;23.372;2022-09-09T02:46:36;148484.53;;;17.49;100.00
6938;BME280;40040;42.706;23.372;2022-09-09T02:49:09;148446.06;;;17.34;100.00
6938;BME280;40040;42.706;23.372;2022-09-09T02:51:40;148397.69;;;17.14;100.00
6938;BME280;40040;42.706;23.372;2022-09-09T02:54:17;148442.34;;;17.32;100.00
6938;BME280;40040;42.706;23.372;2022-09-09T02:56:51;148415.06;;;17.21;100.00
6938;BME280;40040;42.706;23.372;2022-09-09T02:59:20;148400.19;;;17.15;100.00
6938;BME280;40040;42.706;23.372;2022-09-09T03:01:49;148367.94;;;17.02;100.00
6938;BME280;40040;42.706;23.372;2022-09-09T03:04:16;148335.72;;;16.89;100.00
6938;BME280;40040;42.706;23.372;2022-09-09T03:06:43;148330.75;;;16.87;100.00
6938;BME280;40040;42.706;23.372;2022-09-09T03:09:09;148325.81;;;16.85;100.00
6938;BME280;40040;42.706;23.372;2022-09-09T03:11:36;148214.22;;;16.40;100.00
6938;BME280;40040;42.706;23.372;2022-09-09T03:14:04;148330.75;;;16.87;100.00
6938;BME280;40040;42.706;23.372;2022-09-09T03:16:31;148335.72;;;16.89;100.00
6938;BME280;40040;42.706;23.372;2022-09-09T03:19:00;148340.69;;;16.91;100.00
6938;BME280;40040;42.706;23.372;2022-09-09T03:21:27;148339.44;;;16.91;100.00
6938;BME280;40040;42.706;23.372;2022-09-09T03:23:54;148330.75;;;16.87;100.00
6938;BME280;40040;42.706;23.372;2022-09-09T03:26:20;148313.41;;;16.80;100.00
6938;BME280;40040;42.706;23.372;2022-09-09T03:28:48;148329.50;;;16.86;100.00
6938;BME280;40040;42.706;23.372;2022-09-09T03:31:17;148325.81;;;16.85;100.00
6938;BME280;40040;42.706;23.372;2022-09-09T03:33:45;148303.47;;;16.76;100.00
6938;BME280;40040;42.706;23.372;2022-09-09T03:36:13;148288.63;;;16.70;100.00
6938;BME280;40040;42.706;23.372;2022-09-09T03:38:40;148302.22;;;16.75;100.00
6938;BME280;40040;42.706;23.372;2022-09-09T03:41:07;148309.69;;;16.78;100.00
6938;BME280;40040;42.706;23.372;2022-09-09T03:43:34;148231.63;;;16.47;100.00
6938;BME280;40040;42.706;23.372;2022-09-09T03:46:01;148278.69;;;16.66;100.00
6938;BME280;40040;42.706;23.372;2022-09-09T03:48:29;148273.75;;;16.64;100.00
6938;BME280;40040;42.706;23.372;2022-09-09T03:50:56;148286.13;;;16.69;100.00
6938;BME280;40040;42.706;23.372;2022-09-09T03:53:27;148293.56;;;16.72;100.00
6938;BME280;40040;42.706;23.372;2022-09-09T03:55:56;148298.50;;;16.74;100.00
6938;BME280;40040;42.706;23.372;2022-09-09T03:58:30;148177.06;;;16.25;100.00
6938;BME280;40040;42.706;23.372;2022-09-09T04:01:10;148298.50;;;16.74;100.00
6938;BME280;40040;42.706;23.372;2022-09-09T04:03:39;148301.03;;;16.75;100.00
6938;BME280;40040;42.706;23.372;2022-09-09T04:06:07;148236.56;;;16.49;100.00
6938;BME280;40040;42.706;23.372;2022-09-09T04:08:37;148301.03;;;16.75;100.00
6938;BME280;40040;42.706;23.372;2022-09-09T04:11:06;148301.03;;;16.75;100.00
6938;BME280;40040;42.706;23.372;2022-09-09T04:13:36;148299.78;;;16.74;100.00
6938;BME280;40040;42.706;23.372;2022-09-09T04:16:05;148231.63;;;16.47;100.00
6938;BME280;40040;42.706;23.372;2022-09-09T04:18:32;148253.94;;;16.56;100.00
6938;BME280;40040;42.706;23.372;2022-09-09T04:21:00;148170.84;;;16.22;100.00
6938;BME280;40040;42.706;23.372;2022-09-09T04:23:28;148307.19;;;16.77;100.00
6938;BME280;40040;42.706;23.372;2022-09-09T04:25:58;148209.25;;;16.38;100.00
6938;BME280;40040;42.706;23.372;2022-09-09T04:28:27;148266.31;;;16.61;100.00
6938;BME280;40040;42.706;23.372;2022-09-09T04:30:55;148258.91;;;16.58;100.00
6938;BME280;40040;42.706;23.372;2022-09-09T04:33:24;148191.91;;;16.31;100.00
6938;BME280;40040;42.706;23.372;2022-09-09T04:35:53;148298.50;;;16.74;100.00
6938;BME280;40040;42.706;23.372;2022-09-09T04:38:22;148306.00;;;16.77;100.00
6938;BME280;40040;42.706;23.372;2022-09-09T04:40:51;148309.69;;;16.78;100.00
6938;BME280;40040;42.706;23.372;2022-09-09T04:43:21;148318.38;;;16.82;100.00
6938;BME280;40040;42.706;23.372;2022-09-09T04:45:49;148339.44;;;16.91;100.00
6938;BME280;40040;42.706;23.372;2022-09-09T04:48:18;148345.63;;;16.93;100.00
6938;BME280;40040;42.706;23.372;2022-09-09T04:50:53;148345.63;;;16.93;100.00
6938;BME280;40040;42.706;23.372;2022-09-09T04:53:21;148338.19;;;16.90;100.00
6938;BME280;40040;42.706;23.372;2022-09-09T04:55:48;148345.63;;;16.93;100.00
6938;BME280;40040;42.706;23.372;2022-09-09T04:58:15;148318.38;;;16.82;100.00
6938;BME280;40040;42.706;23.372;2022-09-09T05:00:45;148355.56;;;16.97;100.00
6938;BME280;40040;42.706;23.372;2022-09-09T05:03:12;148271.28;;;16.63;100.00
6938;BME280;40040;42.706;23.372;2022-09-09T05:05:39;148410.09;;;17.19;100.00
6938;BME280;40040;42.706;23.372;2022-09-09T05:08:07;148420.03;;;17.23;100.00
6938;BME280;40040;42.706;23.372;2022-09-09T05:10:37;148442.34;;;17.32;100.00
6938;BME280;40040;42.706;23.372;2022-09-09T05:13:04;148475.81;;;17.46;100.00
6938;BME280;40040;42.706;23.372;2022-09-09T05:15:34;148501.91;;;17.56;100.00
6938;BME280;40040;42.706;23.372;2022-09-09T05:18:03;148521.75;;;17.64;100.00
6938;BME280;40040;42.706;23.372;2022-09-09T05:20:33;148544.06;;;17.73;100.00
6938;BME280;40040;42.706;23.372;2022-09-09T05:23:00;148567.66;;;17.83;100.00
6938;BME280;40040;42.706;23.372;2022-09-09T05:25:27;148596.19;;;17.94;100.00
6938;BME280;40040;42.706;23.372;2022-09-09T05:27:55;148618.53;;;18.04;100.00
6938;BME280;40040;42.706;23.372;2022-09-09T05:30:22;148642.13;;;18.13;100.00
6938;BME280;40040;42.706;23.372;2022-09-09T05:32:52;148676.81;;;18.27;100.00
6938;BME280;40040;42.706;23.372;2022-09-09T05:35:20;148710.41;;;18.41;100.00
6938;BME280;40040;42.706;23.372;2022-09-09T05:37:48;148757.56;;;18.60;100.00
6938;BME280;40040;42.706;23.372;2022-09-09T05:40:16;148794.78;;;18.75;100.00
6938;BME280;40040;42.706;23.372;2022-09-09T05:42:44;148836.97;;;18.92;100.00
6938;BME280;40040;42.706;23.372;2022-09-09T05:45:11;148884.16;;;19.11;100.00
6938;BME280;40040;42.706;23.372;2022-09-09T05:47:38;148937.63;;;19.33;100.00
6938;BME280;40040;42.706;23.372;2022-09-09T05:50:06;148937.63;;;19.33;100.00
6938;BME280;40040;42.706;23.372;2022-09-09T05:52:40;148994.75;;;19.56;100.00
6938;BME280;40040;42.706;23.372;2022-09-09T05:55:09;149070.50;;;19.86;93.29
6938;BME280;40040;42.706;23.372;2022-09-09T05:57:36;149132.63;;;20.11;92.27
6938;BME280;40040;42.706;23.372;2022-09-09T06:00:06;149157.53;;;20.22;90.75
6938;BME280;40040;42.706;23.372;2022-09-09T06:02:33;149183.63;;;20.32;91.01
6938;BME280;40040;42.706;23.372;2022-09-09T06:05:03;149207.22;;;20.42;89.75
6938;BME280;40040;42.706;23.372;2022-09-09T06:07:30;149234.56;;;20.53;87.93
6938;BME280;40040;42.706;23.372;2022-09-09T06:09:59;149281.78;;;20.72;83.49
6938;BME280;40040;42.706;23.372;2022-09-09T06:12:26;149268.09;;;20.66;78.60
6938;BME280;40040;42.706;23.372;2022-09-09T06:14:53;149284.31;;;20.73;79.14
6938;BME280;40040;42.706;23.372;2022-09-09T06:17:21;149321.56;;;20.88;79.62
6938;BME280;40040;42.706;23.372;2022-09-09T06:19:49;149371.34;;;21.08;78.82
6938;BME280;40040;42.706;23.372;2022-09-09T06:22:17;149450.94;;;21.40;81.66
6938;BME280;40040;42.706;23.372;2022-09-09T06:24:44;149506.88;;;21.63;80.44
6938;BME280;40040;42.706;23.372;2022-09-09T06:27:13;149539.25;;;21.76;72.98
6938;BME280;40040;42.706;23.372;2022-09-09T06:29:41;149494.47;;;21.58;74.19
6938;BME280;40040;42.706;23.372;2022-09-09T06:32:08;149520.59;;;21.68;73.84
6938;BME280;40040;42.706;23.372;2022-09-09T06:34:35;149564.16;;;21.86;72.71
6938;BME280;40040;42.706;23.372;2022-09-09T06:37:04;149579.06;;;21.92;73.02
6938;BME280;40040;42.706;23.372;2022-09-09T06:39:31;149580.31;;;21.92;71.71
6938;BME280;40040;42.706;23.372;2022-09-09T06:41:59;149562.91;;;21.85;73.30
6938;BME280;40040;42.706;23.372;2022-09-09T06:44:28;149458.38;;;21.43;73.18
6938;BME280;40040;42.706;23.372;2022-09-09T06:46:59;149602.72;;;22.01;73.01
6938;BME280;40040;42.706;23.372;2022-09-09T06:49:26;149671.16;;;22.29;72.68
6938;BME280;40040;42.706;23.372;2022-09-09T06:51:53;149747.09;;;22.60;69.24
6938;BME280;40040;42.706;23.372;2022-09-09T06:54:21;149733.44;;;22.54;68.77
6938;BME280;40040;42.706;23.372;2022-09-09T06:56:49;149747.09;;;22.60;69.33
6938;BME280;40040;42.706;23.372;2022-09-09T06:59:16;149762.06;;;22.66;68.92
6938;BME280;40040;42.706;23.372;2022-09-09T07:01:45;149732.13;;;22.54;68.05
6938;BME280;40040;42.706;23.372;2022-09-09T07:04:12;149769.50;;;22.69;67.61
6938;BME280;40040;42.706;23.372;2022-09-09T07:06:41;149752.06;;;22.62;69.35
6938;BME280;40040;42.706;23.372;2022-09-09T07:09:10;149742.16;;;22.58;69.41
6938;BME280;40040;42.706;23.372;2022-09-09T07:11:39;149767.03;;;22.68;67.30
6938;BME280;40040;42.706;23.372;2022-09-09T07:14:07;149773.22;;;22.70;68.39
6938;BME280;40040;42.706;23.372;2022-09-09T07:16:37;149786.94;;;22.76;67.76
6938;BME280;40040;42.706;23.372;2022-09-09T07:19:06;149813.06;;;22.86;68.92
6938;BME280;40040;42.706;23.372;2022-09-09T07:21:37;149875.34;;;23.11;67.77
6938;BME280;40040;42.706;23.372;2022-09-09T07:24:06;149911.41;;;23.26;64.61
6938;BME280;40040;42.706;23.372;2022-09-09T07:26:36;149930.16;;;23.33;63.81
6938;BME280;40040;42.706;23.372;2022-09-09T07:29:03;149922.69;;;23.30;67.48
6938;BME280;40040;42.706;23.372;2022-09-09T07:31:33;149989.91;;;23.58;62.54
6938;BME280;40040;42.706;23.372;2022-09-09T07:34:01;149961.28;;;23.46;63.43
6938;BME280;40040;42.706;23.372;2022-09-09T07:36:31;149968.75;;;23.49;63.48
6938;BME280;40040;42.706;23.372;2022-09-09T07:39:01;149993.63;;;23.59;63.37
6938;BME280;40040;42.706;23.372;2022-09-09T07:41:31;149981.19;;;23.54;61.26
6938;BME280;40040;42.706;23.372;2022-09-09T07:44:03;150067.13;;;23.89;61.40
6938;BME280;40040;42.706;23.372;2022-09-09T07:46:32;150117.03;;;24.09;59.91
6938;BME280;40040;42.706;23.372;2022-09-09T07:49:00;150130.75;;;24.14;61.00
6938;BME280;40040;42.706;23.372;2022-09-09T07:51:31;150168.09;;;24.29;58.82
6938;BME280;40040;42.706;23.372;2022-09-09T07:54:00;150227.91;;;24.53;57.88
6938;BME280;40040;42.706;23.372;2022-09-09T07:56:28;150269.09;;;24.70;58.08
6938;BME280;40040;42.706;23.372;2022-09-09T07:58:57;150297.75;;;24.82;58.42
6938;BME280;40040;42.706;23.372;2022-09-09T08:01:26;150327.66;;;24.94;58.04
6938;BME280;40040;42.706;23.372;2022-09-09T08:03:55;150355.09;;;25.05;56.65
6938;BME280;40040;42.706;23.372;2022-09-09T08:06:25;150431.13;;;25.35;55.93
6938;BME280;40040;42.706;23.372;2022-09-09T08:08:54;150509.72;;;25.67;54.76
6938;BME280;40040;42.706;23.372;2022-09-09T08:11:22;150489.78;;;25.59;53.78
6938;BME280;40040;42.706;23.372;2022-09-09T08:13:53;150520.97;;;25.72;55.64
6938;BME280;40040;42.706;23.372;2022-09-09T08:16:22;150507.25;;;25.66;53.87
6938;BME280;40040;42.706;23.372;2022-09-09T08:18:51;150529.66;;;25.75;53.82
6938;BME280;40040;42.706;23.372;2022-09-09T08:21:21;150527.19;;;25.74;52.81
6938;BME280;40040;42.706;23.372;2022-09-09T08:23:51;150567.09;;;25.90;52.60
6938;BME280;40040;42.706;23.372;2022-09-09T08:26:21;150575.84;;;25.94;54.15
6938;BME280;40040;42.706;23.372;2022-09-09T08:28:50;150583.31;;;25.97;53.53
6938;BME280;40040;42.706;23.372;2022-09-09T08:31:19;150684.41;;;26.37;53.79
6938;BME280;40040;42.706;23.372;2022-09-09T08:33:47;150793.00;;;26.81;51.93
6938;BME280;40040;42.706;23.372;2022-09-09T08:36:18;150887.88;;;27.19;51.58
6938;BME280;40040;42.706;23.372;2022-09-09T08:38:47;150936.59;;;27.39;49.90
6938;BME280;40040;42.706;23.372;2022-09-09T08:41:35;151028.97;;;27.76;50.68
6938;BME280;40040;42.706;23.372;2022-09-09T08:44:07;151122.69;;;28.14;48.40
6938;BME280;40040;42.706;23.372;2022-09-09T08:46:42;151116.44;;;28.11;51.00
6938;BME280;40040;42.706;23.372;2022-09-09T08:49:39;151011.47;;;27.69;48.47
6938;BME280;40040;42.706;23.372;2022-09-09T08:52:15;150947.81;;;27.43;50.88
6938;BME280;40040;42.706;23.372;2022-09-09T08:54:44;150909.06;;;27.28;50.34
6938;BME280;40040;42.706;23.372;2022-09-09T08:57:16;150849.16;;;27.04;49.86
6938;BME280;40040;42.706;23.372;2022-09-09T08:59:45;150859.13;;;27.08;51.30
6938;BME280;40040;42.706;23.372;2022-09-09T09:02:17;150924.06;;;27.34;50.36
6938;BME280;40040;42.706;23.372;2022-09-09T09:05:13;151007.75;;;27.67;50.14
6938;BME280;40040;42.706;23.372;2022-09-09T09:07:59;151076.47;;;27.95;49.93
6938;BME280;40040;42.706;23.372;2022-09-09T09:10:43;151106.44;;;28.07;49.92
6938;BME280;40040;42.706;23.372;2022-09-09T09:13:19;151085.19;;;27.99;49.54
6938;BME280;40040;42.706;23.372;2022-09-09T09:15:51;151092.72;;;28.02;48.64
6938;BME280;40040;42.706;23.372;2022-09-09T09:18:19;151133.91;;;28.18;48.16
6938;BME280;40040;42.706;23.372;2022-09-09T09:21:02;151125.16;;;28.15;48.21
6938;BME280;40040;42.706;23.372;2022-09-09T09:23:37;151128.91;;;28.16;48.06
6938;BME280;40040;42.706;23.372;2022-09-09T09:26:11;151121.44;;;28.13;48.04
6938;BME280;40040;42.706;23.372;2022-09-09T09:28:40;151103.94;;;28.06;48.84
6938;BME280;40040;42.706;23.372;2022-09-09T09:31:09;151122.69;;;28.14;48.96
6938;BME280;40040;42.706;23.372;2022-09-09T09:33:45;151181.38;;;28.37;47.64
6938;BME280;40040;42.706;23.372;2022-09-09T09:36:14;151226.41;;;28.55;48.57
6938;BME280;40040;42.706;23.372;2022-09-09T09:38:52;151233.91;;;28.58;48.33
6938;BME280;40040;42.706;23.372;2022-09-09T09:41:29;151218.88;;;28.52;47.84
6938;BME280;40040;42.706;23.372;2022-09-09T09:43:58;151272.63;;;28.74;48.31
6938;BME280;40040;42.706;23.372;2022-09-09T09:46:26;151272.63;;;28.74;47.19
6938;BME280;40040;42.706;23.372;2022-09-09T09:48:57;151306.34;;;28.88;47.03
6938;BME280;40040;42.706;23.372;2022-09-09T09:51:25;151340.13;;;29.01;46.43
6938;BME280;40040;42.706;23.372;2022-09-09T09:54:04;151350.09;;;29.05;46.14
6938;BME280;40040;42.706;23.372;2022-09-09T09:56:35;151395.13;;;29.23;46.01
6938;BME280;40040;42.706;23.372;2022-09-09T09:59:05;151353.81;;;29.07;46.33
6938;BME280;40040;42.706;23.372;2022-09-09T10:01:33;151330.09;;;28.97;46.98
6938;BME280;40040;42.706;23.372;2022-09-09T10:04:13;151423.88;;;29.35;47.07
6938;BME280;40040;42.706;23.372;2022-09-09T10:06:41;151386.38;;;29.20;44.66
6938;BME280;40040;42.706;23.372;2022-09-09T10:09:21;151367.63;;;29.12;46.38
6938;BME280;40040;42.706;23.372;2022-09-09T10:11:54;151473.88;;;29.55;45.48
6938;BME280;40040;42.706;23.372;2022-09-09T10:14:30;151481.38;;;29.58;45.75
6938;BME280;40040;42.706;23.372;2022-09-09T10:17:10;151482.63;;;29.58;45.29
6938;BME280;40040;42.706;23.372;2022-09-09T10:19:52;151456.38;;;29.48;46.47
6938;BME280;40040;42.706;23.372;2022-09-09T10:22:26;151403.88;;;29.27;47.06
6938;BME280;40040;42.706;23.372;2022-09-09T10:25:22;151333.84;;;28.99;47.73
6938;BME280;40040;42.706;23.372;2022-09-09T10:28:16;151340.13;;;29.01;47.35
6938;BME280;40040;42.706;23.372;2022-09-09T10:30:57;151353.81;;;29.07;47.16
6938;BME280;40040;42.706;23.372;2022-09-09T10:33:37;151335.13;;;28.99;47.99
6938;BME280;40040;42.706;23.372;2022-09-09T10:36:17;151323.84;;;28.95;47.26
6938;BME280;40040;42.706;23.372;2022-09-09T10:38:47;151307.59;;;28.88;47.90
6938;BME280;40040;42.706;23.372;2022-09-09T10:41:19;151298.84;;;28.85;47.93
6938;BME280;40040;42.706;23.372;2022-09-09T10:44:05;151277.63;;;28.76;47.96
6938;BME280;40040;42.706;23.372;2022-09-09T10:46:46;151211.34;;;28.49;48.17
6938;BME280;40040;42.706;23.372;2022-09-09T10:49:25;151192.66;;;28.42;47.65
6938;BME280;40040;42.706;23.372;2022-09-09T10:52:00;151218.88;;;28.52;48.63
6938;BME280;40040;42.706;23.372;2022-09-09T10:54:41;151171.38;;;28.33;48.65
6938;BME280;40040;42.706;23.372;2022-09-09T10:57:17;151201.34;;;28.45;48.71
6938;BME280;40040;42.706;23.372;2022-09-09T10:59:49;151165.16;;;28.31;49.48
6938;BME280;40040;42.706;23.372;2022-09-09T11:02:28;151133.91;;;28.18;50.07
6938;BME280;40040;42.706;23.372;2022-09-09T11:05:00;151091.47;;;28.01;49.90
6938;BME280;40040;42.706;23.372;2022-09-09T11:07:39;151056.44;;;27.87;51.05
6938;BME280;40040;42.706;23.372;2022-09-09T11:10:17;150930.34;;;27.36;52.11
6938;BME280;40040;42.706;23.372;2022-09-09T11:12:48;150954.09;;;27.46;52.85
6938;BME280;40040;42.706;23.372;2022-09-09T11:15:20;150947.81;;;27.43;53.17
6938;BME280;40040;42.706;23.372;2022-09-09T11:17:53;150952.81;;;27.45;53.28
6938;BME280;40040;42.706;23.372;2022-09-09T11:20:23;150980.25;;;27.56;54.77
6938;BME280;40040;42.706;23.372;2022-09-09T11:22:53;151000.25;;;27.64;53.50
6938;BME280;40040;42.706;23.372;2022-09-09T11:25:25;151019.00;;;27.72;53.93
6938;BME280;40040;42.706;23.372;2022-09-09T11:31:09;151071.44;;;27.93;53.19
6938;BME280;40040;42.706;23.372;2022-09-09T11:33:58;151061.44;;;27.89;52.00
6938;BME280;40040;42.706;23.372;2022-09-09T11:39:50;151004.00;;;27.66;53.35
6938;BME280;40040;42.706;23.372;2022-09-09T11:42:23;150961.56;;;27.49;54.71
6938;BME280;40040;42.706;23.372;2022-09-09T11:44:52;150936.59;;;27.39;53.99
6938;BME280;40040;42.706;23.372;2022-09-09T11:47:23;150936.59;;;27.39;55.35
6938;BME280;40040;42.706;23.372;2022-09-09T11:50:07;150887.88;;;27.19;54.04
6938;BME280;40040;42.706;23.372;2022-09-09T11:52:38;150919.13;;;27.32;54.47
6938;BME280;40040;42.706;23.372;2022-09-09T11:55:10;151021.47;;;27.73;54.70
6938;BME280;40040;42.706;23.372;2022-09-09T11:57:39;150999.00;;;27.64;53.72
6938;BME280;40040;42.706;23.372;2022-09-09T12:00:30;150992.78;;;27.61;55.34
6938;BME280;40040;42.706;23.372;2022-09-09T12:03:00;150996.53;;;27.63;54.65
6938;BME280;40040;42.706;23.372;2022-09-09T12:05:37;151052.72;;;27.86;53.66
6938;BME280;40040;42.706;23.372;2022-09-09T12:08:10;151111.44;;;28.09;53.84
6938;BME280;40040;42.706;23.372;2022-09-09T12:10:39;151070.25;;;27.93;53.06
6938;BME280;40040;42.706;23.372;2022-09-09T12:13:16;151165.16;;;28.31;54.01
6938;BME280;40040;42.706;23.372;2022-09-09T12:15:49;151206.34;;;28.47;54.08
6938;BME280;40040;42.706;23.372;2022-09-09T12:18:22;151238.91;;;28.60;53.02
6938;BME280;40040;42.706;23.372;2022-09-09T12:20:58;151298.84;;;28.85;52.40
6938;BME280;40040;42.706;23.372;2022-09-09T12:23:37;151331.38;;;28.98;53.02
6938;BME280;40040;42.706;23.372;2022-09-09T12:26:21;151241.38;;;28.61;52.07
6938;BME280;40040;42.706;23.372;2022-09-09T12:28:56;151312.63;;;28.90;51.82
6938;BME280;40040;42.706;23.372;2022-09-09T12:31:33;151310.09;;;28.89;53.29
6938;BME280;40040;42.706;23.372;2022-09-09T12:34:10;151365.16;;;29.11;51.92
6938;BME280;40040;42.706;23.372;2022-09-09T12:36:39;151333.84;;;28.99;53.29
6938;BME280;40040;42.706;23.372;2022-09-09T12:39:14;151418.84;;;29.33;51.22
6938;BME280;40040;42.706;23.372;2022-09-09T12:41:51;151416.38;;;29.32;52.10
6938;BME280;40040;42.706;23.372;2022-09-09T12:44:23;151431.34;;;29.38;51.79
6938;BME280;40040;42.706;23.372;2022-09-09T12:46:54;151406.38;;;29.28;50.60
6938;BME280;40040;42.706;23.372;2022-09-09T12:49:30;151415.13;;;29.31;50.88
6938;BME280;40040;42.706;23.372;2022-09-09T12:52:03;151396.41;;;29.24;50.53
6938;BME280;40040;42.706;23.372;2022-09-09T12:54:32;151397.63;;;29.24;50.76
6938;BME280;40040;42.706;23.372;2022-09-09T12:57:02;151361.41;;;29.10;51.64
6938;BME280;40040;42.706;23.372;2022-09-09T12:59:36;151340.13;;;29.01;52.42
6938;BME280;40040;42.706;23.372;2022-09-09T13:02:18;151347.59;;;29.04;52.12
6938;BME280;40040;42.706;23.372;2022-09-09T13:04:45;151340.13;;;29.01;52.35
6938;BME280;40040;42.706;23.372;2022-09-09T13:07:14;151388.88;;;29.21;51.68
6938;BME280;40040;42.706;23.372;2022-09-09T13:09:45;151290.13;;;28.81;51.68
6938;BME280;40040;42.706;23.372;2022-09-09T13:12:15;151313.88;;;28.91;52.49
6938;BME280;40040;42.706;23.372;2022-09-09T13:14:51;151296.38;;;28.84;52.56
6938;BME280;40040;42.706;23.372;2022-09-09T13:17:21;151353.81;;;29.07;53.01
6938;BME280;40040;42.706;23.372;2022-09-09T13:19:50;151328.84;;;28.97;52.13
6938;BME280;40040;42.706;23.372;2022-09-09T13:22:28;151416.38;;;29.32;51.73